Time;durP1;ratioP1;P1;durP2;ratioP2;P2;SDS_P1;SDS_P2;PMS_P1;PMS_P2;Temp;Humidity;BMP_temperature;BMP_pressure;BME280_temperature;BME280_humidity;BME280_pressure;Samples;Min_cycle;Max_cycle;Signal;HPM_P1;HPM_P2
2023/07/25 00:02:24;;;;;;;10.93;2.20;;;14.10;99.90;;;;;;5032305;28;20084;-72
2023/07/25 00:04:50;;;;;;;8.50;2.67;;;14.10;99.90;;;;;;5015729;28;20076;-72
2023/07/25 00:07:15;;;;;;;11.27;2.40;;;14.10;99.90;;;;;;5032455;28;20045;-72
2023/07/25 00:09:41;;;;;;;7.90;2.08;;;14.10;99.90;;;;;;5032114;28;20037;-72
2023/07/25 00:12:07;;;;;;;9.23;2.40;;;14.10;99.90;;;;;;5032114;28;20144;-72
2023/07/25 00:14:34;;;;;;;10.75;2.70;;;14.10;99.90;;;;;;5032153;28;20037;-72
2023/07/25 00:17:00;;;;;;;7.80;2.50;;;14.10;99.90;;;;;;5032023;28;20437;-72
2023/07/25 00:19:26;;;;;;;6.55;2.20;;;14.00;99.90;;;;;;5032287;28;20099;-72
2023/07/25 00:21:51;;;;;;;9.77;2.60;;;14.00;99.90;;;;;;5031260;28;20494;-72
2023/07/25 00:24:17;;;;;;;9.55;2.20;;;14.00;99.90;;;;;;5031957;28;20087;-72
2023/07/25 00:26:43;;;;;;;8.95;2.50;;;14.00;99.90;;;;;;5031963;28;20050;-72
2023/07/25 00:29:09;;;;;;;7.53;2.75;;;13.90;99.90;;;;;;5032130;28;20091;-72
2023/07/25 00:31:34;;;;;;;10.43;2.85;;;13.90;99.90;;;;;;5031880;28;20490;-72
2023/07/25 00:34:00;;;;;;;7.95;2.53;;;13.90;99.90;;;;;;5032133;28;20049;-72
2023/07/25 00:36:26;;;;;;;10.48;2.78;;;13.80;99.90;;;;;;5031836;28;20379;-72
2023/07/25 00:38:51;;;;;;;9.18;2.40;;;13.80;99.90;;;;;;5031739;28;20045;-72
2023/07/25 00:41:17;;;;;;;7.88;2.60;;;13.80;99.90;;;;;;5031753;28;20033;-72
2023/07/25 00:43:43;;;;;;;9.27;3.13;;;13.80;99.90;;;;;;5031782;28;20128;-72
2023/07/25 00:46:08;;;;;;;11.50;2.88;;;13.70;99.90;;;;;;5031657;28;20052;-72
2023/07/25 00:48:34;;;;;;;6.55;2.60;;;13.70;99.90;;;;;;5031763;28;20080;-71
2023/07/25 00:51:00;;;;;;;9.27;2.67;;;13.60;99.90;;;;;;5031547;28;20096;-71
2023/07/25 00:53:26;;;;;;;9.90;2.40;;;13.60;99.90;;;;;;5031676;28;20042;-72
2023/07/25 00:55:52;;;;;;;7.68;2.42;;;13.50;99.90;;;;;;5031927;28;20052;-72
2023/07/25 00:58:18;;;;;;;7.50;2.47;;;13.50;99.90;;;;;;5031599;28;20049;-72
2023/07/25 01:00:44;;;;;;;7.10;2.15;;;13.50;99.90;;;;;;5032015;28;20487;-72
2023/07/25 01:03:12;;;;;;;9.25;2.53;;;13.40;99.90;;;;;;5031581;28;20510;-72
2023/07/25 01:05:44;;;;;;;8.15;2.67;;;13.40;99.90;;;;;;5031514;28;20129;-72
2023/07/25 01:08:09;;;;;;;10.40;3.10;;;13.40;99.90;;;;;;5031649;28;20037;-72
2023/07/25 01:10:38;;;;;;;8.70;2.47;;;13.40;99.90;;;;;;5031438;28;20100;-72
2023/07/25 01:13:05;;;;;;;7.22;2.50;;;13.30;99.90;;;;;;5031479;28;20041;-72
2023/07/25 01:15:31;;;;;;;8.55;2.33;;;13.30;99.90;;;;;;5031467;28;20037;-72
2023/07/25 01:17:57;;;;;;;9.00;2.70;;;13.30;99.90;;;;;;5031486;28;20048;-72
2023/07/25 01:20:24;;;;;;;11.68;2.83;;;13.30;99.90;;;;;;5015156;28;20041;-72
2023/07/25 01:22:50;;;;;;;10.02;3.00;;;13.30;99.90;;;;;;5031403;28;20097;-72
2023/07/25 01:25:16;;;;;;;9.10;2.60;;;13.30;99.90;;;;;;5031329;28;20045;-72
2023/07/25 01:27:42;;;;;;;13.15;2.65;;;13.30;99.90;;;;;;5014952;28;20033;-72
2023/07/25 01:30:08;;;;;;;11.52;3.17;;;13.20;99.90;;;;;;5031300;28;20037;-72
2023/07/25 01:32:33;;;;;;;12.23;2.58;;;13.20;99.90;;;;;;5031330;28;20071;-72
2023/07/25 01:34:59;;;;;;;8.75;2.35;;;13.20;99.90;;;;;;5034809;28;20072;-72
2023/07/25 01:37:25;;;;;;;9.80;2.42;;;13.30;99.90;;;;;;5035020;28;20079;-72
2023/07/25 01:39:50;;;;;;;9.57;2.38;;;13.30;99.90;;;;;;5035168;28;20041;-72
2023/07/25 01:42:16;;;;;;;9.48;2.58;;;13.30;99.90;;;;;;5034892;28;20049;-73
2023/07/25 01:44:42;;;;;;;10.98;2.63;;;13.30;99.90;;;;;;5034785;28;20042;-72
2023/07/25 01:47:07;;;;;;;9.77;2.92;;;13.30;99.90;;;;;;5034805;28;20037;-72
2023/07/25 01:49:33;;;;;;;9.63;2.83;;;13.40;99.90;;;;;;5034519;28;20045;-72
2023/07/25 01:51:59;;;;;;;7.15;2.42;;;13.40;99.90;;;;;;5034972;28;20060;-72
2023/07/25 01:54:24;;;;;;;8.18;2.38;;;13.40;99.90;;;;;;5034691;28;20037;-72
2023/07/25 01:56:50;;;;;;;8.60;2.42;;;13.40;99.90;;;;;;5034861;28;20037;-72
2023/07/25 01:59:16;;;;;;;9.48;2.70;;;13.50;99.90;;;;;;5018058;28;20466;-72
2023/07/25 02:01:42;;;;;;;13.23;3.00;;;13.40;99.90;;;;;;5018073;28;20517;-72
2023/07/25 02:04:08;;;;;;;9.65;2.90;;;13.40;99.90;;;;;;5035346;28;20037;-72
2023/07/25 02:06:33;;;;;;;11.95;2.92;;;13.40;99.90;;;;;;5034396;28;20120;-72
2023/07/25 02:08:59;;;;;;;11.93;2.70;;;13.40;99.90;;;;;;5034340;28;20037;-72
2023/07/25 02:11:24;;;;;;;10.98;2.63;;;13.40;99.90;;;;;;5034625;28;20037;-72
2023/07/25 02:13:50;;;;;;;11.90;2.70;;;13.40;99.90;;;;;;5018099;28;20467;-72
2023/07/25 02:16:15;;;;;;;7.03;2.70;;;13.40;99.90;;;;;;5034276;28;20506;-72
2023/07/25 02:18:41;;;;;;;9.63;2.38;;;13.50;99.90;;;;;;5034480;28;20045;-72
2023/07/25 02:21:07;;;;;;;8.80;2.50;;;13.50;99.90;;;;;;5017915;28;20076;-72
2023/07/25 02:23:32;;;;;;;11.55;2.58;;;13.50;99.90;;;;;;5034433;28;20383;-72
2023/07/25 02:25:58;;;;;;;9.10;2.95;;;13.40;99.90;;;;;;5034021;28;20042;-72
2023/07/25 02:28:24;;;;;;;8.82;2.35;;;13.50;99.90;;;;;;5034065;28;20038;-72
2023/07/25 02:30:49;;;;;;;9.18;2.53;;;13.40;99.90;;;;;;5033918;28;20042;-72
2023/07/25 02:33:15;;;;;;;8.68;2.88;;;13.40;99.90;;;;;;5033969;28;20034;-72
2023/07/25 02:35:40;;;;;;;9.85;2.42;;;13.40;99.90;;;;;;5033906;28;20069;-72
2023/07/25 02:38:06;;;;;;;11.48;2.75;;;13.40;99.90;;;;;;5034681;28;20099;-72
2023/07/25 02:40:32;;;;;;;12.18;2.78;;;13.30;99.90;;;;;;5033997;28;20037;-72
2023/07/25 02:42:57;;;;;;;15.38;2.60;;;13.40;99.90;;;;;;5034008;28;20053;-72
2023/07/25 02:45:23;;;;;;;10.60;2.47;;;13.40;99.90;;;;;;5032838;28;20490;-71
2023/07/25 02:47:48;;;;;;;10.70;2.65;;;13.40;99.90;;;;;;5033695;28;20087;-71
2023/07/25 02:50:14;;;;;;;9.10;2.45;;;13.40;99.90;;;;;;5017218;28;20100;-71
2023/07/25 02:52:41;;;;;;;8.98;2.20;;;13.40;99.90;;;;;;5033612;28;20124;-71
2023/07/25 02:55:07;;;;;;;11.48;2.40;;;13.40;99.90;;;;;;5033810;28;20051;-71
2023/07/25 02:57:33;;;;;;;11.07;2.60;;;13.50;99.90;;;;;;5033751;28;20076;-71
2023/07/25 02:59:59;;;;;;;9.32;2.67;;;13.40;99.90;;;;;;5033663;28;20057;-71
2023/07/25 03:02:24;;;;;;;9.65;2.75;;;13.40;99.90;;;;;;5033604;28;20550;-71
2023/07/25 03:04:50;;;;;;;8.07;2.22;;;13.30;99.90;;;;;;5033546;28;20129;-71
2023/07/25 03:07:15;;;;;;;9.65;2.50;;;13.30;99.90;;;;;;5033340;28;20383;-71
2023/07/25 03:09:41;;;;;;;9.57;2.78;;;13.30;99.90;;;;;;5033203;28;20041;-71
2023/07/25 03:12:07;;;;;;;10.85;2.47;;;13.30;99.90;;;;;;5033228;28;20080;-71
2023/07/25 03:14:32;;;;;;;10.52;2.60;;;13.30;99.90;;;;;;5033414;28;20072;-71
2023/07/25 03:16:58;;;;;;;5.57;2.15;;;13.30;99.90;;;;;;5033390;28;20040;-71
2023/07/25 03:19:24;;;;;;;7.50;2.38;;;13.30;99.90;;;;;;5016597;28;20472;-71
2023/07/25 03:21:50;;;;;;;9.35;2.78;;;13.30;99.90;;;;;;5033027;28;20044;-71
2023/07/25 03:24:16;;;;;;;12.98;2.80;;;13.30;99.90;;;;;;5033302;28;20033;-71
2023/07/25 03:26:42;;;;;;;10.63;2.75;;;13.40;99.90;;;;;;5032917;28;20118;-71
2023/07/25 03:29:07;;;;;;;12.30;2.70;;;13.40;99.90;;;;;;5033102;28;20040;-71
2023/07/25 03:31:33;;;;;;;11.75;3.08;;;13.40;99.90;;;;;;5016675;28;20498;-71
2023/07/25 03:33:58;;;;;;;9.52;2.78;;;13.40;99.90;;;;;;5032834;28;20037;-71
2023/07/25 03:36:25;;;;;;;11.88;3.13;;;13.40;99.90;;;;;;5032792;28;20049;-71
2023/07/25 03:38:51;;;;;;;10.10;2.70;;;13.40;99.90;;;;;;5032624;28;20048;-71
2023/07/25 03:41:16;;;;;;;8.35;2.75;;;13.50;99.90;;;;;;5032681;28;20045;-71
2023/07/25 03:43:42;;;;;;;11.65;2.42;;;13.50;99.90;;;;;;5032891;28;20081;-71
2023/07/25 03:46:08;;;;;;;13.30;2.92;;;13.50;99.90;;;;;;5016118;28;20037;-71
2023/07/25 03:48:33;;;;;;;12.43;2.58;;;13.50;99.90;;;;;;5032574;28;20040;-71
2023/07/25 03:50:59;;;;;;;6.00;2.38;;;13.50;99.90;;;;;;5032318;28;20033;-71
2023/07/25 03:53:24;;;;;;;12.35;3.03;;;13.50;99.90;;;;;;5032750;28;20067;-71
2023/07/25 03:55:50;;;;;;;11.07;2.47;;;13.60;99.90;;;;;;5032399;28;20050;-71
2023/07/25 03:58:15;;;;;;;8.05;2.53;;;13.60;99.90;;;;;;5032394;28;20125;-71
2023/07/25 04:00:41;;;;;;;10.13;3.42;;;13.60;99.90;;;;;;5032284;28;20049;-72
2023/07/25 04:03:07;;;;;;;9.65;3.00;;;13.60;99.90;;;;;;5032576;28;20045;-72
2023/07/25 04:05:33;;;;;;;7.40;2.70;;;13.60;99.90;;;;;;5032360;28;20486;-72
2023/07/25 04:07:59;;;;;;;12.65;2.97;;;13.70;99.90;;;;;;5032420;28;20120;-72
2023/07/25 04:10:25;;;;;;;8.98;2.58;;;13.70;99.90;;;;;;5032135;28;20046;-72
2023/07/25 04:12:51;;;;;;;13.50;2.63;;;13.60;99.90;;;;;;5032141;28;20037;-72
2023/07/25 04:15:16;;;;;;;11.02;2.55;;;13.60;99.90;;;;;;5032087;28;20045;-72
2023/07/25 04:17:42;;;;;;;8.00;2.60;;;13.60;99.90;;;;;;5032063;28;20072;-72
2023/07/25 04:20:08;;;;;;;8.77;2.88;;;13.60;99.90;;;;;;5032009;28;20041;-72
2023/07/25 04:22:34;;;;;;;10.02;2.92;;;13.60;99.90;;;;;;5032026;28;20048;-72
2023/07/25 04:24:59;;;;;;;7.10;2.25;;;13.50;99.90;;;;;;5031951;28;20045;-72
2023/07/25 04:27:25;;;;;;;9.10;2.58;;;13.50;99.90;;;;;;5032233;28;20041;-72
2023/07/25 04:29:50;;;;;;;11.35;3.00;;;13.50;99.90;;;;;;5031881;28;20113;-72
2023/07/25 04:32:16;;;;;;;9.05;2.47;;;13.50;99.90;;;;;;5015484;28;20103;-72
2023/07/25 04:34:41;;;;;;;10.23;2.28;;;13.50;99.90;;;;;;5031865;28;20076;-72
2023/07/25 04:37:07;;;;;;;11.15;2.65;;;13.50;99.90;;;;;;5032129;28;20036;-72
2023/07/25 04:39:33;;;;;;;8.43;2.20;;;13.50;99.90;;;;;;5031785;28;20048;-72
2023/07/25 04:41:58;;;;;;;9.18;2.30;;;13.50;99.90;;;;;;5033320;28;20033;-72
2023/07/25 04:44:24;;;;;;;8.90;2.38;;;13.50;99.90;;;;;;5032004;28;20124;-72
2023/07/25 04:46:49;;;;;;;10.38;3.00;;;13.50;99.90;;;;;;5031692;28;20083;-71
2023/07/25 04:49:16;;;;;;;10.07;2.50;;;13.60;99.90;;;;;;5031597;28;20439;-71
2023/07/25 04:51:42;;;;;;;10.48;2.78;;;13.50;99.90;;;;;;5032018;28;20049;-71
2023/07/25 04:54:07;;;;;;;11.35;2.58;;;13.50;99.90;;;;;;5031686;28;20483;-71
2023/07/25 04:56:33;;;;;;;13.05;2.67;;;13.60;99.90;;;;;;5031680;28;20138;-72
2023/07/25 04:58:59;;;;;;;9.30;2.55;;;13.60;99.90;;;;;;5015178;28;20052;-72
2023/07/25 05:01:24;;;;;;;11.70;2.42;;;13.60;99.90;;;;;;5031800;28;20106;-72
2023/07/25 05:03:50;;;;;;;8.18;2.08;;;13.60;99.90;;;;;;5031638;28;20042;-72
2023/07/25 05:06:15;;;;;;;8.40;1.92;;;13.70;99.90;;;;;;5031611;28;20132;-72
2023/07/25 05:08:41;;;;;;;8.50;2.47;;;13.70;99.90;;;;;;5016696;28;20096;-72
2023/07/25 05:11:07;;;;;;;9.15;2.40;;;13.80;99.90;;;;;;5035725;28;20045;-72
2023/07/25 05:13:32;;;;;;;11.38;2.38;;;13.80;99.90;;;;;;5035657;28;20487;-72
2023/07/25 05:15:58;;;;;;;8.63;2.50;;;13.80;99.90;;;;;;5035661;28;20490;-72
2023/07/25 05:18:23;;;;;;;10.52;2.40;;;13.80;99.90;;;;;;5018867;28;20052;-72
2023/07/25 05:20:49;;;;;;;13.23;2.53;;;13.90;99.90;;;;;;5035281;28;20044;-72
2023/07/25 05:23:15;;;;;;;10.30;2.55;;;13.90;99.90;;;;;;5035559;28;20045;-72
2023/07/25 05:25:40;;;;;;;10.10;2.53;;;13.90;99.90;;;;;;5035353;28;20033;-72
2023/07/25 05:28:06;;;;;;;13.27;2.60;;;14.00;99.90;;;;;;5035227;28;20552;-72
2023/07/25 05:30:32;;;;;;;10.07;2.38;;;14.00;99.90;;;;;;5035073;28;20117;-72
2023/07/25 05:32:59;;;;;;;10.25;2.08;;;13.90;99.90;;;;;;5035383;28;20044;-72
2023/07/25 05:35:24;;;;;;;12.32;2.47;;;14.00;99.90;;;;;;5034990;28;20492;-72
2023/07/25 05:37:50;;;;;;;9.40;2.00;;;14.00;99.90;;;;;;5035010;28;20079;-72
2023/07/25 05:40:15;;;;;;;10.52;2.33;;;14.00;99.90;;;;;;5034915;28;20107;-72
2023/07/25 05:42:41;;;;;;;7.95;1.80;;;14.00;99.90;;;;;;5018393;28;20043;-72
2023/07/25 05:45:07;;;;;;;8.63;2.13;;;14.10;99.90;;;;;;5035005;28;20030;-72
2023/07/25 05:47:32;;;;;;;8.65;2.28;;;14.10;99.90;;;;;;5018366;28;20461;-72
2023/07/25 05:49:58;;;;;;;9.52;2.00;;;14.20;99.90;;;;;;5034903;28;20041;-72
2023/07/25 05:52:23;;;;;;;12.68;2.38;;;14.20;99.90;;;;;;5034763;28;20557;-72
2023/07/25 05:54:49;;;;;;;6.95;1.80;;;14.30;99.90;;;;;;5018289;28;20049;-72
2023/07/25 05:57:15;;;;;;;9.85;1.83;;;14.30;99.90;;;;;;5034665;28;20037;-72
2023/07/25 05:59:43;;;;;;;11.82;2.15;;;14.50;99.90;;;;;;5034554;28;20037;-72
2023/07/25 06:02:09;;;;;;;10.50;2.05;;;14.60;99.90;;;;;;5034834;28;20052;-72
2023/07/25 06:04:35;;;;;;;10.15;1.92;;;14.60;99.90;;;;;;5034735;28;20033;-72
2023/07/25 06:07:01;;;;;;;8.02;1.98;;;14.60;99.90;;;;;;5018016;28;20483;-72
2023/07/25 06:09:26;;;;;;;10.57;1.60;;;14.70;99.90;;;;;;5034672;28;20091;-73
2023/07/25 06:11:53;;;;;;;11.40;1.67;;;14.70;99.90;;;;;;5034479;28;20530;-72
2023/07/25 06:14:18;;;;;;;8.88;1.65;;;14.80;99.90;;;;;;5034289;28;20054;-72
2023/07/25 06:16:44;;;;;;;9.27;1.95;;;14.90;99.90;;;;;;5034256;28;20057;-72
2023/07/25 06:19:10;;;;;;;8.38;1.70;;;15.00;99.90;;;;;;5034079;28;20132;-72
2023/07/25 06:21:36;;;;;;;8.02;1.83;;;15.00;99.90;;;;;;5033350;28;20087;-72
2023/07/25 06:24:01;;;;;;;6.78;1.42;;;15.00;99.90;;;;;;5034183;28;20034;-72
2023/07/25 06:26:27;;;;;;;6.30;1.52;;;15.10;99.90;;;;;;5034064;28;20045;-72
2023/07/25 06:28:53;;;;;;;8.32;1.70;;;15.10;99.90;;;;;;5033966;28;20091;-72
2023/07/25 06:31:18;;;;;;;8.00;1.70;;;15.10;99.90;;;;;;5034307;28;20048;-72
2023/07/25 06:33:44;;;;;;;10.20;1.70;;;15.20;99.90;;;;;;5034013;28;20490;-72
2023/07/25 06:36:09;;;;;;;8.98;1.50;;;15.20;99.90;;;;;;5034173;28;20133;-72
2023/07/25 06:38:35;;;;;;;10.35;1.52;;;15.20;99.90;;;;;;5033874;28;20042;-72
2023/07/25 06:41:01;;;;;;;10.60;1.58;;;15.30;99.90;;;;;;5017503;28;20049;-71
2023/07/25 06:43:26;;;;;;;7.65;1.63;;;15.30;99.90;;;;;;5033929;28;20057;-72
2023/07/25 06:45:53;;;;;;;7.82;1.77;;;15.40;99.90;;;;;;5017711;28;20127;-72
2023/07/25 06:48:18;;;;;;;6.38;1.60;;;15.40;99.90;;;;;;5033826;28;20038;-73
2023/07/25 06:50:45;;;;;;;7.10;1.58;;;15.50;99.90;;;;;;5033754;28;20034;-72
2023/07/25 06:53:11;;;;;;;8.63;1.70;;;15.50;99.90;;;;;;5033866;28;20495;-72
2023/07/25 06:55:40;;;;;;;13.38;2.03;;;15.60;99.90;;;;;;5033555;28;20045;-72
2023/07/25 06:58:05;;;;;;;8.82;1.38;;;15.70;99.90;;;;;;5017054;28;20052;-72
2023/07/25 07:00:33;;;;;;;10.85;1.83;;;15.70;99.90;;;;;;5033660;28;20041;-72
2023/07/25 07:02:59;;;;;;;5.07;1.00;;;15.70;99.90;;;;;;5033452;28;20037;-72
2023/07/25 07:05:24;;;;;;;4.35;1.00;;;15.70;99.90;;;;;;5033319;28;20045;-72
2023/07/25 07:07:50;;;;;;;4.72;1.10;;;15.80;99.90;;;;;;5033590;28;20025;-73
2023/07/25 07:10:16;;;;;;;5.65;1.00;;;15.80;99.90;;;;;;5033296;28;20405;-73
2023/07/25 07:12:46;;;;;;;5.45;0.90;;;15.90;99.90;;;;;;5033217;28;20044;-73
2023/07/25 07:15:14;;;;;;;8.95;1.00;;;15.90;99.90;;;;;;5033225;28;20046;-73
2023/07/25 07:17:40;;;;;;;8.00;1.13;;;16.00;99.90;;;;;;5033178;28;20120;-73
2023/07/25 07:20:06;;;;;;;5.35;1.00;;;16.10;99.90;;;;;;5033050;28;20045;-73
2023/07/25 07:22:32;;;;;;;7.47;1.05;;;16.30;99.90;;;;;;5033062;28;20041;-73
2023/07/25 07:24:57;;;;;;;4.25;1.00;;;16.30;99.90;;;;;;5016694;28;20099;-73
2023/07/25 07:27:23;;;;;;;4.25;0.77;;;16.40;99.90;;;;;;5032985;28;20408;-73
2023/07/25 07:29:52;;;;;;;3.63;0.73;;;16.50;99.90;;;;;;5033147;28;20033;-73
2023/07/25 07:32:17;;;;;;;5.80;0.63;;;16.60;99.90;;;;;;5032778;28;20409;-73
2023/07/25 07:34:43;;;;;;;6.38;0.80;;;16.70;99.90;;;;;;5032827;28;20030;-73
2023/07/25 07:37:09;;;;;;;3.88;0.90;;;16.80;99.90;;;;;;5032796;28;20072;-73
2023/07/25 07:39:37;;;;;;;6.82;0.73;;;16.80;99.90;;;;;;5032622;28;20037;-73
2023/07/25 07:42:03;;;;;;;6.88;0.70;;;16.90;99.90;;;;;;5032982;28;20379;-73
2023/07/25 07:44:29;;;;;;;4.07;0.50;;;16.90;99.90;;;;;;5032637;28;20498;-73
2023/07/25 07:46:55;;;;;;;6.88;1.13;;;17.00;99.70;;;;;;5032524;28;20048;-73
2023/07/25 07:49:20;;;;;;;4.95;0.70;;;17.10;99.10;;;;;;5032422;28;20045;-73
2023/07/25 07:51:46;;;;;;;3.75;0.55;;;17.20;98.70;;;;;;5033283;28;20040;-74
2023/07/25 07:54:12;;;;;;;8.27;1.00;;;17.30;98.20;;;;;;5032477;28;20498;-74
2023/07/25 07:56:37;;;;;;;3.60;0.75;;;17.40;97.90;;;;;;5033526;28;20120;-73
2023/07/25 07:59:03;;;;;;;5.43;0.93;;;17.50;97.60;;;;;;5032322;28;20429;-73
2023/07/25 08:01:28;;;;;;;2.95;0.55;;;17.60;96.70;;;;;;5032622;28;20046;-73
2023/07/25 08:03:54;;;;;;;4.00;0.80;;;17.80;96.50;;;;;;5032316;28;20518;-73
2023/07/25 08:06:19;;;;;;;4.60;0.70;;;17.90;96.10;;;;;;5015917;28;20049;-71
2023/07/25 08:08:45;;;;;;;3.42;0.70;;;18.10;96.00;;;;;;5032505;28;20073;-71
2023/07/25 08:11:11;;;;;;;5.63;0.73;;;18.30;95.70;;;;;;5032090;28;20080;-71
2023/07/25 08:13:36;;;;;;;3.20;0.52;;;18.30;95.40;;;;;;5015721;28;20033;-71
2023/07/25 08:16:02;;;;;;;4.35;0.70;;;18.20;95.20;;;;;;5033366;28;20049;-71
2023/07/25 08:18:27;;;;;;;6.68;0.60;;;18.20;94.90;;;;;;5032423;28;20052;-71
2023/07/25 08:20:56;;;;;;;3.38;0.45;;;18.10;94.70;;;;;;5031963;28;20574;-71
2023/07/25 08:23:22;;;;;;;5.43;0.85;;;18.10;94.70;;;;;;5032298;28;20037;-71
2023/07/25 08:25:47;;;;;;;3.20;0.63;;;18.10;94.80;;;;;;5015446;28;20045;-71
2023/07/25 08:28:13;;;;;;;7.30;0.90;;;18.20;94.40;;;;;;5031965;28;20045;-70
2023/07/25 08:30:38;;;;;;;4.15;0.80;;;18.20;93.90;;;;;;5031859;28;20490;-71
2023/07/25 08:33:04;;;;;;;3.67;0.65;;;18.20;93.60;;;;;;5031918;28;20053;-71
2023/07/25 08:35:30;;;;;;;3.15;0.60;;;18.10;92.90;;;;;;5031875;28;20076;-71
2023/07/25 08:37:55;;;;;;;5.50;0.90;;;18.10;93.10;;;;;;5015383;28;20033;-71
2023/07/25 08:40:21;;;;;;;5.25;0.88;;;18.30;92.60;;;;;;5015376;28;20037;-70
2023/07/25 08:42:49;;;;;;;4.95;0.80;;;18.50;92.40;;;;;;5031186;28;20099;-70
2023/07/25 08:45:15;;;;;;;6.13;0.75;;;18.60;91.80;;;;;;5031953;28;20106;-71
2023/07/25 08:47:44;;;;;;;6.13;0.80;;;18.70;91.40;;;;;;5031789;28;20050;-71
2023/07/25 08:50:15;;;;;;;3.58;0.90;;;18.90;90.80;;;;;;5031597;28;20065;-71
2023/07/25 08:52:49;;;;;;;2.80;0.68;;;19.00;91.10;;;;;;5031754;28;20561;-71
2023/07/25 08:55:16;;;;;;;5.10;0.73;;;19.20;90.90;;;;;;5031727;28;20045;-71
2023/07/25 08:57:42;;;;;;;2.25;0.50;;;19.20;91.00;;;;;;5031652;28;20513;-71
2023/07/25 09:00:08;;;;;;;4.38;0.60;;;19.30;90.20;;;;;;5031610;28;20049;-71
2023/07/25 09:02:34;;;;;;;4.75;0.60;;;19.40;89.40;;;;;;5015541;28;20045;-71
2023/07/25 09:05:01;;;;;;;5.30;0.80;;;19.50;87.20;;;;;;5031827;28;20521;-71
2023/07/25 09:07:26;;;;;;;3.25;0.70;;;19.70;85.70;;;;;;5031894;28;20049;-71
2023/07/25 09:09:53;;;;;;;5.68;0.70;;;19.90;83.90;;;;;;5031781;28;20533;-71
2023/07/25 09:12:18;;;;;;;5.35;0.57;;;20.00;82.90;;;;;;5031591;28;20516;-71
2023/07/25 09:14:44;;;;;;;4.47;0.60;;;20.10;81.90;;;;;;5031549;28;20135;-71
2023/07/25 09:17:10;;;;;;;4.95;0.68;;;20.20;79.50;;;;;;5031473;28;20044;-71
2023/07/25 09:19:36;;;;;;;4.95;0.70;;;20.20;80.20;;;;;;5031468;28;20045;-71
2023/07/25 09:22:01;;;;;;;3.25;0.70;;;20.30;79.60;;;;;;5031448;28;20048;-71
2023/07/25 09:24:39;;;;;;;4.32;0.68;;;20.10;80.10;;;;;;5031435;28;20045;-71
2023/07/25 09:27:19;;;;;;;6.88;0.85;;;20.10;78.90;;;;;;5031322;28;20533;-71
2023/07/25 09:29:46;;;;;;;3.85;0.82;;;20.10;80.50;;;;;;5031615;28;20045;-71
2023/07/25 09:32:25;;;;;;;3.40;0.90;;;20.00;81.00;;;;;;5031378;28;20513;-71
2023/07/25 09:34:58;;;;;;;6.38;0.75;;;20.00;80.40;;;;;;5031662;28;20037;-71
2023/07/25 09:37:24;;;;;;;5.57;0.50;;;20.30;81.20;;;;;;5031919;28;20034;-71
2023/07/25 09:39:50;;;;;;;3.20;0.47;;;20.50;78.90;;;;;;5031186;28;20136;-70
2023/07/25 09:42:19;;;;;;;4.35;0.68;;;20.60;77.50;;;;;;5031335;28;20033;-70
2023/07/25 09:44:50;;;;;;;3.97;0.75;;;20.80;75.50;;;;;;5031576;28;20045;-70
2023/07/25 09:47:23;;;;;;;4.90;0.60;;;20.70;74.60;;;;;;5014883;28;20042;-70
2023/07/25 09:49:50;;;;;;;3.58;0.60;;;20.70;74.40;;;;;;5031457;28;20037;-70
2023/07/25 09:52:16;;;;;;;5.40;0.60;;;20.80;74.80;;;;;;5014911;28;20125;-71
2023/07/25 09:54:41;;;;;;;5.15;0.93;;;21.10;75.10;;;;;;5032605;28;20034;-71
2023/07/25 09:57:08;;;;;;;3.70;0.50;;;21.20;74.40;;;;;;5018211;28;20084;-71
2023/07/25 09:59:34;;;;;;;4.38;0.65;;;21.30;73.40;;;;;;5034640;28;20156;-71
2023/07/25 10:02:00;;;;;;;4.65;1.33;;;21.30;72.40;;;;;;5034551;28;20560;-71
2023/07/25 10:04:27;;;;;;;5.32;0.70;;;21.20;72.00;;;;;;5034555;28;20501;-71
2023/07/25 10:06:53;;;;;;;2.90;0.55;;;21.00;72.30;;;;;;5034548;28;20091;-71
2023/07/25 10:09:19;;;;;;;8.07;1.00;;;20.90;73.40;;;;;;5034373;28;20038;-71
2023/07/25 10:11:50;;;;;;;6.60;1.23;;;20.70;74.30;;;;;;5034436;28;20106;-71
2023/07/25 10:14:16;;;;;;;8.20;1.00;;;20.60;74.90;;;;;;5034447;28;20041;-71
2023/07/25 10:16:42;;;;;;;4.00;0.70;;;20.60;74.90;;;;;;5034343;28;20045;-71
2023/07/25 10:19:08;;;;;;;5.65;0.80;;;20.60;75.20;;;;;;5034247;28;20048;-71
2023/07/25 10:21:48;;;;;;;6.32;0.80;;;20.70;74.40;;;;;;5034501;28;20045;-71
2023/07/25 10:24:14;;;;;;;2.88;0.52;;;21.00;74.00;;;;;;5034463;28;20042;-71
2023/07/25 10:26:57;;;;;;;5.30;0.57;;;21.30;73.60;;;;;;5034088;28;20399;-71
2023/07/25 10:29:58;;;;;;;9.15;1.00;;;21.30;73.20;;;;;;5034087;28;20402;-71
2023/07/25 10:32:42;;;;;;;8.82;1.02;;;21.10;72.70;;;;;;4958484;28;20051;-70
2023/07/25 10:35:08;;;;;;;3.90;0.77;;;20.70;72.90;;;;;;4958256;28;20058;-71
2023/07/25 10:37:40;;;;;;;5.38;0.80;;;20.60;74.30;;;;;;4958504;28;20047;-71
2023/07/25 10:40:23;;;;;;;5.23;0.80;;;20.70;74.60;;;;;;4958338;28;20050;-71
2023/07/25 10:42:57;;;;;;;3.83;0.85;;;20.80;75.00;;;;;;4958458;28;20065;-71
2023/07/25 10:45:50;;;;;;;2.90;0.70;;;20.90;73.50;;;;;;4957984;28;20051;-71
2023/07/25 10:48:43;;;;;;;4.32;0.75;;;21.10;72.40;;;;;;4958198;28;20134;-71
2023/07/25 10:51:08;;;;;;;4.38;0.70;;;21.40;74.30;;;;;;4957892;28;20047;-70
2023/07/25 10:53:35;;;;;;;6.25;1.10;;;21.70;72.70;;;;;;4957937;28;20145;-70
2023/07/25 10:56:03;;;;;;;4.93;0.80;;;21.90;72.50;;;;;;4958340;28;20082;-72
2023/07/25 10:58:33;;;;;;;3.72;0.50;;;21.90;70.60;;;;;;4958112;28;20126;-72
2023/07/25 11:01:00;;;;;;;3.80;0.70;;;22.10;71.30;;;;;;4957729;28;20046;-72
2023/07/25 11:03:33;;;;;;;5.20;0.88;;;22.40;69.90;;;;;;4958012;28;20093;-74
2023/07/25 11:06:07;;;;;;;6.20;1.17;;;22.40;68.80;;;;;;4957957;28;20035;-75
2023/07/25 11:08:39;;;;;;;1.80;0.40;;;22.30;67.70;;;;;;4998589;28;20046;-75
2023/07/25 11:11:07;;;;;;;4.22;0.77;;;22.30;68.20;;;;;;5033266;28;20045;-75
2023/07/25 11:13:34;;;;;;;3.50;0.63;;;22.40;68.40;;;;;;5017006;28;20524;-75
2023/07/25 11:16:08;;;;;;;5.45;0.70;;;22.60;67.90;;;;;;5033494;28;20046;-75
2023/07/25 11:18:37;;;;;;;3.70;0.70;;;23.00;68.50;;;;;;5033132;28;20477;-75
2023/07/25 11:21:05;;;;;;;2.80;0.60;;;23.20;66.50;;;;;;5016565;28;20048;-75
2023/07/25 11:23:31;;;;;;;5.65;0.68;;;23.30;65.30;;;;;;5033096;28;20502;-76
2023/07/25 11:25:59;;;;;;;3.80;0.80;;;23.40;63.30;;;;;;5032984;28;20033;-75
2023/07/25 11:28:26;;;;;;;4.45;0.65;;;23.30;63.90;;;;;;5016767;28;20052;-75
2023/07/25 11:30:52;;;;;;;2.63;0.70;;;23.20;63.40;;;;;;5016408;28;20041;-76
2023/07/25 11:33:19;;;;;;;3.08;0.70;;;23.00;62.80;;;;;;5032891;28;20044;-75
2023/07/25 11:35:45;;;;;;;6.88;1.00;;;22.80;62.50;;;;;;5033089;28;20048;-75
2023/07/25 11:38:10;;;;;;;5.40;0.80;;;22.60;63.40;;;;;;5032789;28;20414;-76
2023/07/25 11:40:40;;;;;;;4.93;0.60;;;22.50;63.70;;;;;;5032703;28;20048;-76
2023/07/25 11:43:13;;;;;;;3.17;0.52;;;22.40;62.80;;;;;;5016480;28;20084;-75
2023/07/25 11:45:39;;;;;;;6.80;0.75;;;22.30;62.60;;;;;;5016069;28;20391;-75
2023/07/25 11:48:07;;;;;;;4.97;0.47;;;22.10;63.40;;;;;;5032890;28;20044;-76
2023/07/25 11:50:36;;;;;;;2.88;0.70;;;21.80;63.60;;;;;;5032406;28;20048;-75
2023/07/25 11:53:02;;;;;;;4.70;0.90;;;21.60;65.00;;;;;;5032545;28;20036;-75
2023/07/25 11:55:28;;;;;;;4.88;0.70;;;21.40;64.60;;;;;;5032426;28;20038;-76
2023/07/25 11:57:55;;;;;;;3.50;0.60;;;21.20;65.30;;;;;;5032337;28;20049;-75
2023/07/25 12:00:22;;;;;;;2.42;0.77;;;21.00;65.70;;;;;;5016147;28;20119;-75
2023/07/25 12:02:47;;;;;;;3.20;0.70;;;21.00;66.20;;;;;;5032389;28;20052;-75
2023/07/25 12:05:30;;;;;;;1.75;0.73;;;20.80;65.90;;;;;;5032787;28;20038;-75
2023/07/25 12:08:03;;;;;;;4.13;0.70;;;20.90;65.40;;;;;;5032536;28;20053;-75
2023/07/25 12:10:30;;;;;;;4.00;0.60;;;20.90;66.20;;;;;;5015770;28;20037;-75
2023/07/25 12:12:57;;;;;;;6.80;0.60;;;21.10;66.70;;;;;;5032171;28;20038;-75
2023/07/25 12:15:42;;;;;;;2.40;0.68;;;21.30;67.90;;;;;;5032169;28;20041;-75
2023/07/25 12:18:27;;;;;;;3.10;0.50;;;21.40;68.20;;;;;;5031242;28;20046;-75
2023/07/25 12:21:00;;;;;;;4.65;0.60;;;21.40;65.60;;;;;;5032056;28;20094;-75
2023/07/25 12:23:30;;;;;;;6.68;0.90;;;21.40;66.40;;;;;;5032047;28;20519;-75
2023/07/25 12:25:57;;;;;;;4.93;0.80;;;21.30;66.30;;;;;;5032090;28;20047;-75
2023/07/25 12:28:23;;;;;;;4.18;0.80;;;21.40;66.40;;;;;;5032033;28;20048;-75
2023/07/25 12:30:49;;;;;;;4.80;0.70;;;21.40;66.30;;;;;;5031919;28;20044;-75
2023/07/25 12:33:15;;;;;;;4.32;0.50;;;21.50;65.50;;;;;;5032156;28;20502;-75
2023/07/25 12:35:41;;;;;;;3.85;0.70;;;21.70;65.50;;;;;;5031842;28;20048;-75
2023/07/25 12:38:06;;;;;;;3.05;0.50;;;22.20;64.50;;;;;;5031873;28;20053;-75
2023/07/25 12:40:32;;;;;;;4.03;0.80;;;22.50;62.50;;;;;;5032078;28;20044;-75
2023/07/25 12:42:58;;;;;;;2.88;0.50;;;22.80;62.60;;;;;;5032094;28;20048;-75
2023/07/25 12:45:23;;;;;;;4.20;0.70;;;23.10;63.30;;;;;;5031778;28;20464;-75